| time (UTC) | temp C | wind direction | speed KPH | gust KPH | rain 1hr cm | rain 24hr cm | rain mn cm | humidity % | barometer mb |
| 20260906225540 | 15 | 41 | 14.5 | 30.6 | 0.00 | 0.00 | 0.00 | 80 | 1018.0 |
| 20260906225039 | 15 | 50 | 56.3 | 77.2 | 0.00 | 0.00 | 0.00 | 80 | 1018.0 |
| 20260906224539 | 15 | 57 | 57.9 | 78.9 | 0.00 | 0.00 | 0.00 | 81 | 1018.0 |
| 20260906224423 | 15 | 57 | 57.9 | 78.9 | 0.00 | 0.00 | 0.00 | 81 | 1018.1 |
| 20260906224039 | 15 | 47 | 56.3 | 78.9 | 0.00 | 0.00 | 0.00 | 81 | 1018.0 |
| 20260906223923 | 15 | 47 | 56.3 | 78.9 | 0.00 | 0.00 | 0.00 | 81 | 1018.1 |
| 20260906223540 | 15 | 47 | 46.7 | 74.0 | 0.00 | 0.00 | 0.00 | 81 | 1018.0 |
| 20260906223423 | 15 | 47 | 46.7 | 74.0 | 0.00 | 0.00 | 0.00 | 81 | 1018.0 |
| 20260906222923 | 15 | 75 | 59.5 | 91.7 | 0.00 | 0.00 | 0.00 | 80 | 1018.0 |
| 20260906220923 | 15 | 85 | 22.5 | 70.8 | 0.00 | 0.00 | 0.00 | 81 | 1018.2 |
| 20260906220040 | 15 | 42 | 8.0 | 9.7 | 0.00 | 0.00 | 0.00 | 81 | 1018.0 |
| 20260906215923 | 15 | 42 | 8.0 | 9.7 | 0.00 | 0.00 | 0.00 | 81 | 1018.3 |
| 20260906215423 | 15 | 40 | 11.3 | 14.5 | 0.00 | 0.00 | 0.00 | 81 | 1018.5 |
| 20260906214540 | 15 | 42 | 8.0 | 11.3 | 0.00 | 0.00 | 0.00 | 82 | 1019.0 |
| 20260906214039 | 15 | 42 | 9.7 | 14.5 | 0.00 | 0.00 | 0.00 | 82 | 1019.0 |
| 20260906213515 | 15 | 42 | 9.7 | 12.9 | 0.00 | 0.00 | 0.00 | 83 | 1018.7 |
| 20260906213039 | 14 | 42 | 11.3 | 14.5 | 0.00 | 0.00 | 0.00 | 84 | 1019.0 |
| 20260906212924 | 14 | 42 | 11.3 | 14.5 | 0.00 | 0.00 | 0.00 | 84 | 1018.6 |
| 20260906212539 | 14 | 42 | 9.7 | 12.9 | 0.00 | 0.00 | 0.00 | 84 | 1019.0 |
| 20260906212423 | 14 | 42 | 9.7 | 12.9 | 0.00 | 0.00 | 0.00 | 84 | 1018.7 |
| 20260906211923 | 14 | 42 | 9.7 | 12.9 | 0.00 | 0.00 | 0.00 | 84 | 1018.7 |
| 20260906211423 | 14 | 44 | 8.0 | 9.7 | 0.00 | 0.00 | 0.00 | 85 | 1018.7 |
| 20260906211039 | 14 | 42 | 6.4 | 9.7 | 0.00 | 0.00 | 0.00 | 86 | 1019.0 |
| 20260906210542 | 14 | 43 | 4.8 | 6.4 | 0.00 | 0.00 | 0.00 | 86 | 1019.0 |
| 20260906210423 | 14 | 43 | 4.8 | 6.4 | 0.00 | 0.00 | 0.00 | 86 | 1018.7 |
| 20260906205924 | 14 | 43 | 4.8 | 4.8 | 0.00 | 0.00 | 0.00 | 85 | 1019.0 |
| 20260906205539 | 14 | 44 | 4.8 | 6.4 | 0.00 | 0.00 | 0.00 | 84 | 1019.0 |
| 20260906205039 | 14 | 44 | 6.4 | 14.5 | 0.00 | 0.00 | 0.00 | 84 | 1019.0 |
| 20260906204539 | 14 | 43 | 6.4 | 8.0 | 0.00 | 0.00 | 0.00 | 85 | 1019.0 |
| 20260906204423 | 14 | 43 | 6.4 | 8.0 | 0.00 | 0.00 | 0.00 | 85 | 1019.1 |
| 20260906203923 | 14 | 43 | 3.2 | 8.0 | 0.00 | 0.00 | 0.00 | 86 | 1019.1 |
| 20260906203423 | 14 | 41 | 8.0 | 11.3 | 0.00 | 0.00 | 0.00 | 84 | 1019.2 |
| 20260906203040 | 14 | 41 | 11.3 | 25.7 | 0.00 | 0.00 | 0.00 | 84 | 1019.0 |
| 20260906202923 | 14 | 41 | 11.3 | 25.7 | 0.00 | 0.00 | 0.00 | 84 | 1019.1 |
| 20260906202423 | 14 | 42 | 9.7 | 14.5 | 0.00 | 0.00 | 0.00 | 85 | 1019.1 |
| 20260906201923 | 14 | 36 | 11.3 | 27.4 | 0.00 | 0.00 | 0.00 | 85 | 1019.1 |
| 20260906201423 | 14 | 39 | 9.7 | 12.9 | 0.00 | 0.00 | 0.00 | 84 | 1019.2 |
| 20260906200924 | 14 | 34 | 6.4 | 9.7 | 0.00 | 0.00 | 0.00 | 85 | 1019.1 |
| 20260906200539 | 14 | 42 | 4.8 | 6.4 | 0.00 | 0.00 | 0.00 | 85 | 1019.0 |
| 20260906200423 | 14 | 42 | 4.8 | 6.4 | 0.00 | 0.00 | 0.00 | 85 | 1019.2 |
| 20260906200040 | 14 | 36 | 6.4 | 9.7 | 0.00 | 0.00 | 0.00 | 85 | 1019.0 |
| 20260906195925 | 14 | 36 | 6.4 | 9.7 | 0.00 | 0.00 | 0.00 | 85 | 1019.3 |
| 20260906195540 | 14 | 42 | 8.0 | 8.0 | 0.00 | 0.00 | 0.00 | 85 | 1019.0 |
| 20260906195039 | 14 | 38 | 6.4 | 8.0 | 0.00 | 0.00 | 0.00 | 85 | 1019.0 |
| 20260906194539 | 14 | 37 | 8.0 | 11.3 | 0.00 | 0.00 | 0.00 | 85 | 1019.0 |
| 20260906194040 | 14 | 40 | 9.7 | 12.9 | 0.00 | 0.00 | 0.00 | 85 | 1019.0 |
| 20260906193539 | 14 | 43 | 9.7 | 17.7 | 0.00 | 0.00 | 0.00 | 85 | 1019.0 |
| 20260906193039 | 14 | 43 | 11.3 | 16.1 | 0.00 | 0.00 | 0.00 | 85 | 1019.0 |
| 20260906192539 | 14 | 30 | 20.9 | 35.4 | 0.00 | 0.00 | 0.00 | 85 | 1019.0 |
| 20260906192423 | 14 | 30 | 20.9 | 35.4 | 0.00 | 0.00 | 0.00 | 85 | 1019.4 |
| 20260906192039 | 14 | 31 | 24.1 | 49.9 | 0.00 | 0.00 | 0.00 | 85 | 1019.0 |
| 20260906191923 | 14 | 31 | 24.1 | 49.9 | 0.00 | 0.00 | 0.00 | 85 | 1019.4 |
| 20260906191424 | 14 | 27 | 20.9 | 48.3 | 0.00 | 0.00 | 0.00 | 85 | 1019.5 |
| 20260906190923 | 14 | 30 | 17.7 | 46.7 | 0.00 | 0.00 | 0.00 | 85 | 1019.5 |
| 20260906190423 | 14 | 11 | 17.7 | 27.4 | 0.00 | 0.00 | 0.00 | 85 | 1019.5 |
| 20260906185923 | 14 | 11 | 17.7 | 41.8 | 0.00 | 0.00 | 0.00 | 86 | 1019.5 |
| 20260906185539 | 14 | 22 | 24.1 | 49.9 | 0.00 | 0.00 | 0.00 | 86 | 1020.0 |
| 20260906185423 | 14 | 22 | 24.1 | 49.9 | 0.00 | 0.00 | 0.00 | 86 | 1019.5 |
| 20260906184923 | 14 | 8 | 16.1 | 35.4 | 0.00 | 0.00 | 0.00 | 86 | 1019.5 |
| 20260906184424 | 14 | 27 | 22.5 | 54.7 | 0.00 | 0.00 | 0.00 | 87 | 1019.6 |
| 20260906183424 | 13 | 9 | 16.1 | 45.1 | 0.00 | 0.00 | 0.00 | 87 | 1019.6 |
| 20260906182923 | 13 | 10 | 14.5 | 43.5 | 0.00 | 0.00 | 0.00 | 87 | 1019.7 |
| 20260906182039 | 13 | 349 | 12.9 | 17.7 | 0.00 | 0.00 | 0.00 | 88 | 1020.0 |
| 20260906181540 | 13 | 346 | 11.3 | 16.1 | 0.00 | 0.00 | 0.00 | 88 | 1020.0 |
| 20260906181039 | 13 | 340 | 11.3 | 16.1 | 0.00 | 0.00 | 0.00 | 88 | 1020.0 |
| 20260906180540 | 13 | 345 | 12.9 | 16.1 | 0.00 | 0.00 | 0.00 | 89 | 1020.0 |
| 20260906180424 | 13 | 345 | 12.9 | 16.1 | 0.00 | 0.00 | 0.00 | 89 | 1020.0 |
| 20260906175923 | 13 | 346 | 11.3 | 16.1 | 0.00 | 0.00 | 0.00 | 89 | 1020.0 |
| 20260906175540 | 14 | 344 | 11.3 | 16.1 | 0.00 | 0.00 | 0.00 | 88 | 1020.0 |
| 20260906175423 | 14 | 344 | 11.3 | 16.1 | 0.00 | 0.00 | 0.00 | 88 | 1020.1 |
| 20260906174923 | 14 | 353 | 16.1 | 43.5 | 0.00 | 0.00 | 0.00 | 88 | 1020.0 |
| 20260906174423 | 14 | 23 | 19.3 | 53.1 | 0.00 | 0.00 | 0.00 | 88 | 1020.0 |
| 20260906174039 | 14 | 345 | 9.7 | 19.3 | 0.00 | 0.00 | 0.00 | 88 | 1020.0 |
| 20260906173924 | 14 | 345 | 9.7 | 19.3 | 0.00 | 0.00 | 0.00 | 88 | 1020.0 |
| 20260906173423 | 14 | 343 | 11.3 | 16.1 | 0.00 | 0.00 | 0.00 | 89 | 1020.0 |
| 20260906173039 | 14 | 332 | 12.9 | 30.6 | 0.00 | 0.00 | 0.00 | 89 | 1020.0 |
| 20260906172540 | 14 | 340 | 11.3 | 14.5 | 0.00 | 0.00 | 0.00 | 88 | 1020.0 |
| 20260906172039 | 14 | 343 | 11.3 | 14.5 | 0.00 | 0.00 | 0.00 | 89 | 1020.0 |
| 20260906171539 | 14 | 343 | 11.3 | 16.1 | 0.00 | 0.00 | 0.00 | 90 | 1020.0 |
| 20260906171039 | 13 | 345 | 11.3 | 16.1 | 0.00 | 0.00 | 0.00 | 91 | 1020.0 |
| 20260906170542 | 13 | 344 | 12.9 | 20.9 | 0.00 | 0.00 | 0.00 | 91 | 1020.0 |
| 20260906170424 | 13 | 344 | 12.9 | 20.9 | 0.00 | 0.00 | 0.00 | 91 | 1020.2 |
| 20260906165923 | 13 | 346 | 12.9 | 17.7 | 0.00 | 0.00 | 0.00 | 91 | 1020.1 |
| 20260906165423 | 13 | 341 | 12.9 | 22.5 | 0.00 | 0.00 | 0.00 | 91 | 1020.1 |
| 20260906164923 | 13 | 348 | 12.9 | 24.1 | 0.00 | 0.00 | 0.00 | 91 | 1020.1 |
| 20260906164423 | 13 | 342 | 11.3 | 16.1 | 0.00 | 0.00 | 0.00 | 92 | 1020.0 |
| 20260906163923 | 13 | 17 | 14.5 | 43.5 | 0.00 | 0.00 | 0.00 | 92 | 1019.8 |
| 20260906163541 | 13 | 354 | 12.9 | 17.7 | 0.00 | 0.00 | 0.00 | 93 | 1020.0 |
| 20260906163040 | 13 | 346 | 11.3 | 17.7 | 0.00 | 0.00 | 0.00 | 94 | 1020.0 |
| 20260906162923 | 13 | 346 | 11.3 | 17.7 | 0.00 | 0.00 | 0.00 | 94 | 1019.8 |
| 20260906162424 | 13 | 342 | 11.3 | 16.1 | 0.00 | 0.00 | 0.00 | 94 | 1019.7 |
| 20260906162040 | 13 | 346 | 9.7 | 17.7 | 0.00 | 0.00 | 0.00 | 94 | 1020.0 |
| 20260906161539 | 13 | 353 | 9.7 | 14.5 | 0.00 | 0.00 | 0.00 | 96 | 1020.0 |
| 20260906161039 | 13 | 1 | 11.3 | 29.0 | 0.00 | 0.00 | 0.00 | 96 | 1020.0 |
| 20260906160923 | 13 | 1 | 11.3 | 29.0 | 0.00 | 0.00 | 0.00 | 96 | 1019.8 |
| 20260906160539 | 12 | 341 | 11.3 | 14.5 | 0.00 | 0.00 | 0.00 | 97 | 1020.0 |
| 20260906160039 | 12 | 331 | 11.3 | 16.1 | 0.00 | 0.00 | 0.00 | 97 | 1020.0 |
| 20260906155923 | 12 | 331 | 11.3 | 16.1 | 0.00 | 0.00 | 0.00 | 97 | 1019.8 |
| 20260906155423 | 12 | 321 | 6.4 | 9.7 | 0.00 | 0.00 | 0.00 | 98 | 1019.9 |
| 20260906155039 | 12 | 315 | 8.0 | 14.5 | 0.00 | 0.00 | 0.00 | 98 | 1020.0 |
| 20260906154924 | 12 | 315 | 8.0 | 14.5 | 0.00 | 0.00 | 0.00 | 98 | 1019.9 |
| 20260906154539 | 12 | 303 | 3.2 | 4.8 | 0.00 | 0.00 | 0.00 | 98 | 1020.0 |
| 20260906154039 | 12 | 342 | 6.4 | 8.0 | 0.00 | 0.00 | 0.00 | 98 | 1020.0 |
| 20260906153540 | 12 | 311 | 4.8 | 6.4 | 0.00 | 0.00 | 0.00 | 98 | 1020.0 |
| 20260906153039 | 12 | 329 | 4.8 | 6.4 | 0.00 | 0.00 | 0.00 | 98 | 1020.0 |
| 20260906152539 | 12 | 34 | 4.8 | 6.4 | 0.00 | 0.00 | 0.00 | 98 | 1020.0 |
| 20260906152423 | 12 | 34 | 4.8 | 6.4 | 0.00 | 0.00 | 0.00 | 98 | 1020.0 |
| 20260906151923 | 12 | 333 | 3.2 | 4.8 | 0.00 | 0.00 | 0.00 | 98 | 1020.1 |
| 20260906151423 | 12 | 262 | 3.2 | 4.8 | 0.00 | 0.00 | 0.00 | 98 | 1020.1 |
| 20260906150923 | 12 | 353 | 4.8 | 6.4 | 0.00 | 0.00 | 0.00 | 97 | 1020.1 |
| 20260906150423 | 12 | 307 | 3.2 | 3.2 | 0.00 | 0.00 | 0.00 | 97 | 1020.1 |
| 20260906145924 | 12 | 12 | 6.4 | 8.0 | 0.00 | 0.00 | 0.00 | 98 | 1020.1 |
| 20260906145423 | 12 | 324 | 3.2 | 4.8 | 0.00 | 0.00 | 0.00 | 98 | 1020.1 |
| 20260906144923 | 12 | 340 | 1.6 | 3.2 | 0.00 | 0.00 | 0.00 | 98 | 1020.3 |
| 20260906144539 | 12 | 343 | 3.2 | 3.2 | 0.00 | 0.00 | 0.00 | 98 | 1020.0 |
| 20260906144424 | 12 | 4 | 3.2 | 3.2 | 0.00 | 0.00 | 0.00 | 98 | 1020.2 |
| 20260906143925 | 12 | 290 | 3.2 | 4.8 | 0.00 | 0.00 | 0.00 | 98 | 1020.3 |
| 20260906143423 | 12 | 333 | 3.2 | 4.8 | 0.00 | 0.00 | 0.00 | 98 | 1020.2 |
| 20260906142923 | 12 | 322 | 4.8 | 6.4 | 0.00 | 0.00 | 0.00 | 98 | 1020.3 |
| 20260906142423 | 12 | 323 | 3.2 | 6.4 | 0.00 | 0.00 | 0.00 | 98 | 1020.3 |
| 20260906141923 | 12 | 328 | 3.2 | 4.8 | 0.00 | 0.00 | 0.00 | 98 | 1020.3 |
| 20260906141539 | 11 | 326 | 3.2 | 3.2 | 0.00 | 0.00 | 0.00 | 98 | 1021.0 |
| 20260906141423 | 11 | 312 | 3.2 | 4.8 | 0.00 | 0.00 | 0.00 | 98 | 1020.3 |
| 20260906140923 | 11 | 40 | 3.2 | 3.2 | 0.00 | 0.00 | 0.00 | 98 | 1020.3 |
| 20260906140540 | 11 | 44 | 3.2 | 4.8 | 0.00 | 0.00 | 0.00 | 98 | 1020.0 |
| 20260906140423 | 11 | 236 | 3.2 | 6.4 | 0.00 | 0.00 | 0.00 | 98 | 1020.3 |
| 20260906140040 | 11 | 287 | 3.2 | 3.2 | 0.00 | 0.00 | 0.00 | 98 | 1020.0 |
| 20260906135539 | 11 | 135 | 4.8 | 6.4 | 0.00 | 0.00 | 0.00 | 98 | 1020.0 |
| 20260906135039 | 11 | 282 | 3.2 | 3.2 | 0.00 | 0.00 | 0.00 | 98 | 1020.0 |
| 20260906134540 | 11 | 329 | 3.2 | 4.8 | 0.00 | 0.00 | 0.00 | 98 | 1020.0 |
| 20260906134039 | 11 | 303 | 3.2 | 4.8 | 0.00 | 0.00 | 0.00 | 98 | 1020.0 |
| 20260906133539 | 11 | 353 | 1.6 | 3.2 | 0.00 | 0.00 | 0.00 | 98 | 1021.0 |
| 20260906133423 | 11 | 22 | 3.2 | 4.8 | 0.00 | 0.00 | 0.00 | 98 | 1020.6 |
| 20260906133039 | 11 | 300 | 1.6 | 3.2 | 0.00 | 0.00 | 0.00 | 98 | 1021.0 |
| 20260906132923 | 11 | 355 | 3.2 | 3.2 | 0.00 | 0.00 | 0.00 | 98 | 1020.5 |
| 20260906132540 | 11 | 360 | 3.2 | 3.2 | 0.00 | 0.00 | 0.00 | 98 | 1021.0 |
| 20260906132424 | 11 | 307 | 1.6 | 3.2 | 0.00 | 0.00 | 0.00 | 98 | 1020.3 |
| 20260906132040 | 11 | 295 | 1.6 | 3.2 | 0.00 | 0.00 | 0.00 | 98 | 1020.0 |
| 20260906131540 | 11 | 278 | 1.6 | 3.2 | 0.00 | 0.00 | 0.00 | 98 | 1020.0 |
| 20260906131423 | 11 | 231 | 3.2 | 4.8 | 0.00 | 0.00 | 0.00 | 98 | 1020.5 |
| 20260906130923 | 11 | 259 | 4.8 | 6.4 | 0.00 | 0.00 | 0.00 | 98 | 1020.6 |
| 20260906130540 | 11 | 198 | 3.2 | 4.8 | 0.00 | 0.00 | 0.00 | 98 | 1021.0 |
| 20260906130039 | 11 | 275 | 3.2 | 6.4 | 0.00 | 0.00 | 0.00 | 98 | 1021.0 |
| 20260906125923 | 11 | 270 | 3.2 | 4.8 | 0.00 | 0.00 | 0.00 | 98 | 1020.6 |
| 20260906125539 | 11 | 227 | 3.2 | 4.8 | 0.00 | 0.00 | 0.00 | 98 | 1021.0 |
| 20260906125040 | 11 | 305 | 3.2 | 6.4 | 0.00 | 0.00 | 0.00 | 98 | 1021.0 |
| 20260906124929 | 11 | 240 | 4.8 | 6.4 | 0.00 | 0.00 | 0.00 | 98 | 1020.8 |
| 20260906124539 | 11 | 204 | 4.8 | 6.4 | 0.00 | 0.00 | 0.00 | 98 | 1021.0 |
| 20260906124424 | 11 | 9 | 3.2 | 3.2 | 0.00 | 0.00 | 0.00 | 98 | 1020.8 |
| 20260906123923 | 11 | 307 | 1.6 | 3.2 | 0.00 | 0.00 | 0.00 | 98 | 1020.7 |
| 20260906123423 | 11 | 343 | 3.2 | 3.2 | 0.00 | 0.00 | 0.00 | 98 | 1020.8 |
| 20260906123039 | 11 | 232 | 4.8 | 6.4 | 0.00 | 0.00 | 0.00 | 98 | 1021.0 |
| 20260906122926 | 11 | 232 | 4.8 | 6.4 | 0.00 | 0.00 | 0.00 | 98 | 1020.8 |
| 20260906122423 | 11 | 202 | 4.8 | 6.4 | 0.00 | 0.00 | 0.00 | 98 | 1020.9 |
| 20260906121924 | 11 | 84 | 3.2 | 3.2 | 0.00 | 0.00 | 0.00 | 98 | 1020.7 |
| 20260906121423 | 11 | 109 | 1.6 | 3.2 | 0.00 | 0.00 | 0.00 | 98 | 1020.7 |
| 20260906120923 | 11 | 183 | 3.2 | 3.2 | 0.00 | 0.00 | 0.00 | 98 | 1020.7 |
| 20260906120424 | 11 | 23 | 3.2 | 3.2 | 0.00 | 0.00 | 0.00 | 97 | 1020.8 |
| 20260906120040 | 11 | 190 | 4.8 | 6.4 | 0.00 | 0.00 | 0.00 | 97 | 1021.0 |
| 20260906115539 | 11 | 196 | 1.6 | 3.2 | 0.00 | 0.00 | 0.00 | 97 | 1021.0 |
| 20260906115423 | 11 | 43 | 3.2 | 3.2 | 0.00 | 0.00 | 0.00 | 97 | 1020.8 |
| 20260906114923 | 11 | 360 | 3.2 | 4.8 | 0.00 | 0.00 | 0.00 | 97 | 1020.7 |
| 20260906114423 | 11 | 16 | 3.2 | 4.8 | 0.00 | 0.00 | 0.00 | 97 | 1020.6 |
| 20260906113923 | 11 | 315 | 1.6 | 3.2 | 0.00 | 0.00 | 0.00 | 97 | 1020.6 |
| 20260906113423 | 11 | 30 | 3.2 | 6.4 | 0.00 | 0.00 | 0.00 | 97 | 1020.6 |
| 20260906112923 | 11 | 38 | 3.2 | 4.8 | 0.00 | 0.00 | 0.00 | 97 | 1020.7 |
| 20260906112539 | 11 | 1 | 3.2 | 6.4 | 0.00 | 0.00 | 0.00 | 97 | 1021.0 |
| 20260906112039 | 11 | 18 | 3.2 | 4.8 | 0.00 | 0.00 | 0.00 | 97 | 1021.0 |
| 20260906111923 | 11 | 192 | 3.2 | 3.2 | 0.00 | 0.00 | 0.00 | 97 | 1020.9 |
| 20260906111423 | 11 | 286 | 1.6 | 1.6 | 0.00 | 0.00 | 0.00 | 97 | 1021.0 |
| 20260906111039 | 11 | 10 | 3.2 | 4.8 | 0.00 | 0.00 | 0.00 | 97 | 1021.0 |
| 20260906110923 | 11 | 349 | 4.8 | 4.8 | 0.00 | 0.00 | 0.00 | 97 | 1021.0 |
| 20260906110423 | 11 | 70 | 3.2 | 3.2 | 0.00 | 0.00 | 0.00 | 97 | 1021.0 |
| 20260906105923 | 11 | 47 | 4.8 | 4.8 | 0.00 | 0.00 | 0.00 | 97 | 1021.1 |
| 20260906105423 | 11 | 25 | 3.2 | 6.4 | 0.00 | 0.00 | 0.00 | 97 | 1021.1 |
| 20260906104923 | 11 | 360 | 3.2 | 4.8 | 0.00 | 0.00 | 0.00 | 97 | 1021.1 |
| 20260906104423 | 11 | 358 | 3.2 | 3.2 | 0.00 | 0.00 | 0.00 | 97 | 1021.1 |
| 20260906103923 | 11 | 47 | 3.2 | 4.8 | 0.00 | 0.00 | 0.00 | 97 | 1021.0 |
| 20260906103539 | 11 | 95 | 3.2 | 3.2 | 0.00 | 0.00 | 0.00 | 97 | 1021.0 |
| 20260906103424 | 11 | 347 | 3.2 | 3.2 | 0.00 | 0.00 | 0.00 | 97 | 1021.2 |
| 20260906102923 | 11 | 183 | 3.2 | 4.8 | 0.00 | 0.00 | 0.00 | 97 | 1021.2 |
| 20260906102539 | 11 | 50 | 3.2 | 3.2 | 0.00 | 0.00 | 0.00 | 97 | 1021.0 |
| 20260906102039 | 11 | 11 | 3.2 | 4.8 | 0.00 | 0.00 | 0.00 | 97 | 1021.0 |
| 20260906101539 | 11 | 41 | 3.2 | 6.4 | 0.00 | 0.00 | 0.00 | 97 | 1021.0 |
| 20260906101040 | 11 | 38 | 6.4 | 9.7 | 0.00 | 0.00 | 0.00 | 97 | 1021.0 |
| 20260906100923 | 11 | 38 | 6.4 | 9.7 | 0.00 | 0.00 | 0.00 | 97 | 1021.2 |
| 20260906100540 | 11 | 31 | 8.0 | 9.7 | 0.00 | 0.00 | 0.00 | 97 | 1021.0 |
| 20260906100039 | 11 | 38 | 9.7 | 11.3 | 0.00 | 0.00 | 0.00 | 97 | 1021.0 |
| 20260906095540 | 11 | 33 | 6.4 | 8.0 | 0.00 | 0.00 | 0.00 | 97 | 1021.0 |
| 20260906095039 | 11 | 40 | 4.8 | 8.0 | 0.00 | 0.00 | 0.00 | 97 | 1021.0 |
| 20260906094539 | 11 | 53 | 3.2 | 4.8 | 0.00 | 0.00 | 0.00 | 97 | 1021.0 |
| 20260906094423 | 11 | 31 | 3.2 | 3.2 | 0.00 | 0.00 | 0.00 | 97 | 1021.4 |
| 20260906094039 | 11 | 28 | 8.0 | 9.7 | 0.00 | 0.00 | 0.00 | 97 | 1021.0 |
| 20260906093540 | 11 | 29 | 6.4 | 8.0 | 0.00 | 0.00 | 0.00 | 97 | 1021.0 |
| 20260906093039 | 11 | 17 | 4.8 | 6.4 | 0.00 | 0.00 | 0.00 | 97 | 1021.0 |
| 20260906092923 | 11 | 26 | 4.8 | 6.4 | 0.00 | 0.00 | 0.00 | 97 | 1021.4 |
| 20260906092539 | 11 | 29 | 6.4 | 8.0 | 0.00 | 0.00 | 0.00 | 97 | 1022.0 |
| 20260906092423 | 11 | 30 | 6.4 | 9.7 | 0.00 | 0.00 | 0.00 | 97 | 1021.4 |
| 20260906091923 | 11 | 31 | 4.8 | 8.0 | 0.00 | 0.00 | 0.00 | 97 | 1021.5 |
| 20260906091423 | 11 | 42 | 6.4 | 8.0 | 0.00 | 0.00 | 0.00 | 96 | 1021.6 |
| 20260906090925 | 11 | 14 | 6.4 | 6.4 | 0.00 | 0.00 | 0.00 | 96 | 1021.6 |
| 20260906090423 | 11 | 34 | 6.4 | 6.4 | 0.00 | 0.00 | 0.00 | 96 | 1021.6 |
| 20260906090039 | 11 | 21 | 3.2 | 4.8 | 0.00 | 0.00 | 0.00 | 96 | 1022.0 |
| 20260906085539 | 11 | 33 | 6.4 | 9.7 | 0.00 | 0.00 | 0.00 | 96 | 1022.0 |
| 20260906085039 | 11 | 22 | 6.4 | 8.0 | 0.00 | 0.00 | 0.00 | 96 | 1022.0 |
| 20260906084539 | 11 | 2 | 4.8 | 6.4 | 0.00 | 0.00 | 0.00 | 95 | 1022.0 |
| 20260906084039 | 11 | 16 | 6.4 | 6.4 | 0.00 | 0.00 | 0.00 | 95 | 1022.0 |
| 20260906083540 | 11 | 15 | 6.4 | 6.4 | 0.00 | 0.00 | 0.00 | 95 | 1022.0 |
| 20260906083423 | 11 | 2 | 4.8 | 6.4 | 0.00 | 0.00 | 0.00 | 95 | 1022.0 |
| 20260906083039 | 11 | 12 | 4.8 | 4.8 | 0.00 | 0.00 | 0.00 | 95 | 1022.0 |
| 20260906082923 | 11 | 7 | 4.8 | 6.4 | 0.00 | 0.00 | 0.00 | 95 | 1022.0 |
| 20260906082539 | 11 | 360 | 4.8 | 6.4 | 0.00 | 0.00 | 0.00 | 95 | 1022.0 |
| 20260906082039 | 11 | 20 | 6.4 | 6.4 | 0.00 | 0.00 | 0.00 | 95 | 1022.0 |
| 20260906081539 | 11 | 10 | 3.2 | 4.8 | 0.00 | 0.00 | 0.00 | 95 | 1022.0 |
| 20260906081423 | 11 | 10 | 4.8 | 4.8 | 0.00 | 0.00 | 0.00 | 95 | 1022.4 |
| 20260906080925 | 11 | 334 | 3.2 | 3.2 | 0.00 | 0.00 | 0.00 | 95 | 1022.4 |
| 20260906080539 | 11 | 333 | 3.2 | 3.2 | 0.00 | 0.00 | 0.00 | 95 | 1022.0 |
| 20260906080423 | 11 | 248 | 1.6 | 3.2 | 0.00 | 0.00 | 0.00 | 95 | 1022.4 |
| 20260906080039 | 11 | 326 | 3.2 | 4.8 | 0.00 | 0.00 | 0.00 | 95 | 1022.0 |
| 20260906075924 | 11 | 318 | 3.2 | 3.2 | 0.00 | 0.00 | 0.00 | 94 | 1022.4 |
| 20260906075423 | 11 | 344 | 3.2 | 3.2 | 0.00 | 0.00 | 0.00 | 94 | 1022.4 |
| 20260906074923 | 11 | 2 | 4.8 | 4.8 | 0.00 | 0.00 | 0.00 | 94 | 1022.4 |
| 20260906074423 | 11 | 321 | 3.2 | 4.8 | 0.00 | 0.00 | 0.00 | 94 | 1022.4 |
| 20260906073923 | 11 | 352 | 3.2 | 3.2 | 0.00 | 0.00 | 0.00 | 94 | 1022.6 |
| 20260906073424 | 11 | 242 | 3.2 | 3.2 | 0.00 | 0.00 | 0.00 | 94 | 1022.6 |
| 20260906072923 | 11 | 344 | 3.2 | 3.2 | 0.00 | 0.00 | 0.00 | 94 | 1022.5 |
| 20260906072424 | 11 | 278 | 1.6 | 3.2 | 0.00 | 0.00 | 0.00 | 93 | 1022.4 |
| 20260906071924 | 11 | 328 | 4.8 | 6.4 | 0.00 | 0.00 | 0.00 | 93 | 1022.3 |
| 20260906071540 | 11 | 345 | 4.8 | 4.8 | 0.00 | 0.00 | 0.00 | 93 | 1022.0 |
| 20260906071039 | 11 | 337 | 4.8 | 4.8 | 0.00 | 0.00 | 0.00 | 93 | 1022.0 |
| 20260906070923 | 11 | 359 | 6.4 | 6.4 | 0.00 | 0.00 | 0.00 | 93 | 1022.2 |
| 20260906070423 | 11 | 338 | 3.2 | 4.8 | 0.00 | 0.00 | 0.00 | 93 | 1022.2 |
| 20260906065923 | 11 | 358 | 4.8 | 4.8 | 0.00 | 0.00 | 0.00 | 93 | 1022.3 |
| 20260906065541 | 11 | 313 | 3.2 | 3.2 | 0.00 | 0.00 | 0.00 | 93 | 1022.0 |
| 20260906065423 | 11 | 325 | 3.2 | 4.8 | 0.00 | 0.00 | 0.00 | 93 | 1022.3 |
| 20260906065040 | 11 | 358 | 4.8 | 4.8 | 0.00 | 0.00 | 0.00 | 93 | 1022.0 |
| 20260906064540 | 11 | 357 | 4.8 | 4.8 | 0.00 | 0.00 | 0.00 | 93 | 1022.0 |
| 20260906064039 | 11 | 354 | 4.8 | 4.8 | 0.00 | 0.00 | 0.00 | 93 | 1022.0 |
| 20260906063923 | 11 | 360 | 4.8 | 6.4 | 0.00 | 0.00 | 0.00 | 93 | 1022.3 |
| 20260906063540 | 11 | 343 | 4.8 | 6.4 | 0.00 | 0.00 | 0.00 | 93 | 1022.0 |
| 20260906063040 | 11 | 2 | 4.8 | 6.4 | 0.00 | 0.00 | 0.00 | 93 | 1022.0 |
| 20260906062923 | 11 | 335 | 4.8 | 4.8 | 0.00 | 0.00 | 0.00 | 93 | 1022.4 |
| 20260906062424 | 11 | 355 | 4.8 | 6.4 | 0.00 | 0.00 | 0.00 | 93 | 1022.4 |
| 20260906061923 | 11 | 344 | 4.8 | 4.8 | 0.00 | 0.00 | 0.00 | 93 | 1022.5 |
| 20260906061539 | 11 | 349 | 4.8 | 6.4 | 0.00 | 0.00 | 0.00 | 93 | 1023.0 |
| 20260906061423 | 11 | 346 | 4.8 | 6.4 | 0.00 | 0.00 | 0.00 | 93 | 1022.5 |
| 20260906061039 | 11 | 352 | 4.8 | 6.4 | 0.00 | 0.00 | 0.00 | 93 | 1023.0 |
| 20260906060539 | 11 | 346 | 4.8 | 6.4 | 0.00 | 0.00 | 0.00 | 93 | 1023.0 |
| 20260906060040 | 11 | 355 | 4.8 | 6.4 | 0.00 | 0.00 | 0.00 | 93 | 1022.0 |
| 20260906055923 | 11 | 330 | 3.2 | 4.8 | 0.00 | 0.00 | 0.00 | 93 | 1022.4 |
| 20260906055539 | 11 | 358 | 4.8 | 4.8 | 0.00 | 0.00 | 0.00 | 93 | 1022.0 |
| 20260906055039 | 11 | 338 | 4.8 | 6.4 | 0.00 | 0.00 | 0.00 | 93 | 1022.0 |
| 20260906054539 | 11 | 304 | 6.4 | 6.4 | 0.00 | 0.00 | 0.00 | 93 | 1022.0 |
| 20260906054039 | 11 | 357 | 4.8 | 6.4 | 0.00 | 0.00 | 0.00 | 93 | 1022.0 |
| 20260906053541 | 11 | 359 | 6.4 | 6.4 | 0.00 | 0.00 | 0.00 | 93 | 1022.0 |
| 20260906053039 | 11 | 351 | 6.4 | 6.4 | 0.00 | 0.00 | 0.00 | 93 | 1022.0 |
| 20260906052540 | 11 | 354 | 4.8 | 4.8 | 0.00 | 0.00 | 0.00 | 93 | 1022.0 |
| 20260906052424 | 11 | 359 | 6.4 | 6.4 | 0.00 | 0.00 | 0.00 | 93 | 1022.4 |
| 20260906052039 | 11 | 353 | 4.8 | 6.4 | 0.00 | 0.00 | 0.00 | 93 | 1022.0 |
| 20260906051539 | 11 | 335 | 3.2 | 4.8 | 0.00 | 0.00 | 0.00 | 93 | 1022.0 |
| 20260906051423 | 11 | 335 | 3.2 | 4.8 | 0.00 | 0.00 | 0.00 | 93 | 1022.4 |
| 20260906050923 | 11 | 353 | 4.8 | 6.4 | 0.00 | 0.00 | 0.00 | 93 | 1022.3 |
| 20260906050423 | 11 | 358 | 4.8 | 6.4 | 0.00 | 0.00 | 0.00 | 93 | 1022.2 |
| 20260906050039 | 11 | 336 | 4.8 | 4.8 | 0.00 | 0.00 | 0.00 | 93 | 1022.0 |
| 20260906045540 | 11 | 7 | 4.8 | 6.4 | 0.00 | 0.00 | 0.00 | 93 | 1022.0 |
| 20260906045039 | 11 | 10 | 4.8 | 6.4 | 0.00 | 0.00 | 0.00 | 93 | 1022.0 |
| 20260906044539 | 11 | 12 | 6.4 | 6.4 | 0.00 | 0.00 | 0.00 | 93 | 1022.0 |
| 20260906044423 | 11 | 13 | 6.4 | 6.4 | 0.00 | 0.00 | 0.00 | 93 | 1022.2 |
| 20260906043923 | 11 | 353 | 6.4 | 8.0 | 0.00 | 0.00 | 0.00 | 93 | 1022.2 |
| 20260906043423 | 11 | 1 | 6.4 | 8.0 | 0.00 | 0.00 | 0.00 | 92 | 1022.2 |
| 20260906042923 | 11 | 16 | 6.4 | 8.0 | 0.00 | 0.00 | 0.00 | 92 | 1022.2 |
| 20260906042423 | 11 | 360 | 6.4 | 8.0 | 0.00 | 0.00 | 0.00 | 92 | 1022.2 |
| 20260906041924 | 11 | 8 | 6.4 | 6.4 | 0.00 | 0.00 | 0.00 | 92 | 1022.3 |
| 20260906041539 | 11 | 7 | 6.4 | 6.4 | 0.00 | 0.00 | 0.00 | 92 | 1022.0 |
| 20260906041424 | 11 | 8 | 6.4 | 8.0 | 0.00 | 0.00 | 0.00 | 92 | 1022.3 |
| 20260906040923 | 11 | 9 | 6.4 | 8.0 | 0.00 | 0.00 | 0.00 | 92 | 1022.3 |
| 20260906040424 | 11 | 3 | 8.0 | 9.7 | 0.00 | 0.00 | 0.00 | 91 | 1022.2 |
| 20260906035923 | 11 | 14 | 8.0 | 9.7 | 0.00 | 0.00 | 0.00 | 92 | 1022.3 |
| 20260906035541 | 12 | 17 | 8.0 | 8.0 | 0.00 | 0.00 | 0.00 | 91 | 1022.0 |
| 20260906035423 | 12 | 21 | 8.0 | 9.7 | 0.00 | 0.00 | 0.00 | 91 | 1022.4 |
| 20260906035039 | 12 | 19 | 8.0 | 9.7 | 0.00 | 0.00 | 0.00 | 91 | 1023.0 |
| 20260906034539 | 12 | 16 | 8.0 | 9.7 | 0.00 | 0.00 | 0.00 | 91 | 1023.0 |
| 20260906034039 | 12 | 11 | 6.4 | 6.4 | 0.00 | 0.00 | 0.00 | 91 | 1022.0 |
| 20260906033923 | 12 | 9 | 6.4 | 6.4 | 0.00 | 0.00 | 0.00 | 91 | 1022.4 |
| 20260906033539 | 12 | 356 | 6.4 | 6.4 | 0.00 | 0.00 | 0.00 | 91 | 1022.0 |
| 20260906033039 | 12 | 349 | 6.4 | 6.4 | 0.00 | 0.00 | 0.00 | 91 | 1022.0 |
| 20260906032539 | 12 | 5 | 6.4 | 6.4 | 0.00 | 0.00 | 0.00 | 91 | 1022.0 |
| 20260906032039 | 12 | 3 | 6.4 | 6.4 | 0.00 | 0.00 | 0.00 | 91 | 1022.0 |
| 20260906031540 | 12 | 347 | 4.8 | 6.4 | 0.00 | 0.00 | 0.00 | 91 | 1022.0 |
| 20260906031423 | 12 | 9 | 6.4 | 6.4 | 0.00 | 0.00 | 0.00 | 91 | 1022.3 |
| 20260906031039 | 12 | 12 | 6.4 | 6.4 | 0.00 | 0.00 | 0.00 | 91 | 1022.0 |
| 20260906030539 | 12 | 330 | 6.4 | 8.0 | 0.00 | 0.00 | 0.00 | 91 | 1022.0 |
| 20260906030040 | 12 | 354 | 6.4 | 6.4 | 0.00 | 0.00 | 0.00 | 90 | 1022.0 |
| 20260906025539 | 12 | 359 | 8.0 | 8.0 | 0.00 | 0.00 | 0.00 | 90 | 1022.0 |
| 20260906025424 | 12 | 341 | 6.4 | 6.4 | 0.00 | 0.00 | 0.00 | 90 | 1022.4 |
| 20260906025039 | 12 | 335 | 6.4 | 6.4 | 0.00 | 0.00 | 0.00 | 90 | 1022.0 |
| 20260906024924 | 12 | 356 | 6.4 | 6.4 | 0.00 | 0.00 | 0.00 | 90 | 1022.4 |
| 20260906024539 | 12 | 345 | 6.4 | 6.4 | 0.00 | 0.00 | 0.00 | 90 | 1023.0 |
| 20260906024040 | 12 | 351 | 8.0 | 8.0 | 0.00 | 0.00 | 0.00 | 90 | 1022.0 |
| 20260906023923 | 12 | 320 | 6.4 | 6.4 | 0.00 | 0.00 | 0.00 | 90 | 1022.4 |
| 20260906023539 | 12 | 347 | 6.4 | 8.0 | 0.00 | 0.00 | 0.00 | 90 | 1022.0 |
| 20260906023423 | 12 | 347 | 6.4 | 6.4 | 0.00 | 0.00 | 0.00 | 90 | 1022.4 |
| 20260906023040 | 12 | 338 | 4.8 | 4.8 | 0.00 | 0.00 | 0.00 | 90 | 1022.0 |
| 20260906022923 | 12 | 332 | 6.4 | 6.4 | 0.00 | 0.00 | 0.00 | 90 | 1022.4 |
| 20260906022424 | 12 | 322 | 4.8 | 6.4 | 0.00 | 0.00 | 0.00 | 90 | 1022.4 |
| 20260906021923 | 12 | 328 | 4.8 | 6.4 | 0.00 | 0.00 | 0.00 | 89 | 1022.4 |
| 20260906021424 | 12 | 314 | 4.8 | 6.4 | 0.00 | 0.00 | 0.00 | 89 | 1022.3 |
| 20260906021039 | 12 | 341 | 6.4 | 9.7 | 0.00 | 0.00 | 0.00 | 89 | 1022.0 |
| 20260906020539 | 12 | 324 | 4.8 | 8.0 | 0.00 | 0.00 | 0.00 | 89 | 1022.0 |
| 20260906020039 | 12 | 333 | 6.4 | 9.7 | 0.00 | 0.00 | 0.00 | 89 | 1022.0 |
| 20260906015539 | 12 | 343 | 8.0 | 9.7 | 0.00 | 0.00 | 0.00 | 89 | 1022.0 |
| 20260906015039 | 12 | 342 | 8.0 | 9.7 | 0.00 | 0.00 | 0.00 | 89 | 1022.0 |
| 20260906014923 | 12 | 351 | 9.7 | 11.3 | 0.00 | 0.00 | 0.00 | 89 | 1022.2 |
| 20260906014540 | 12 | 347 | 8.0 | 9.7 | 0.00 | 0.00 | 0.00 | 89 | 1022.0 |
| 20260906014425 | 12 | 340 | 8.0 | 11.3 | 0.00 | 0.00 | 0.00 | 89 | 1022.2 |
| 20260906014039 | 12 | 351 | 8.0 | 9.7 | 0.00 | 0.00 | 0.00 | 89 | 1022.0 |
| 20260906013923 | 12 | 346 | 6.4 | 8.0 | 0.00 | 0.00 | 0.00 | 89 | 1022.1 |
| 20260906013423 | 12 | 346 | 8.0 | 11.3 | 0.00 | 0.00 | 0.00 | 88 | 1022.0 |
| 20260906012923 | 12 | 344 | 8.0 | 9.7 | 0.00 | 0.00 | 0.00 | 88 | 1022.0 |
| 20260906012539 | 12 | 352 | 9.7 | 11.3 | 0.00 | 0.00 | 0.00 | 88 | 1022.0 |
| 20260906012424 | 12 | 360 | 9.7 | 11.3 | 0.00 | 0.00 | 0.00 | 88 | 1022.0 |
| 20260906011923 | 12 | 13 | 9.7 | 12.9 | 0.00 | 0.00 | 0.00 | 88 | 1021.8 |
| 20260906011424 | 12 | 3 | 8.0 | 9.7 | 0.00 | 0.00 | 0.00 | 88 | 1021.8 |
| 20260906010923 | 12 | 11 | 9.7 | 11.3 | 0.00 | 0.00 | 0.00 | 87 | 1021.8 |
| 20260906010423 | 12 | 5 | 11.3 | 11.3 | 0.00 | 0.00 | 0.00 | 87 | 1021.7 |
| 20260906010039 | 12 | 16 | 11.3 | 12.9 | 0.00 | 0.00 | 0.00 | 88 | 1022.0 |
| 20260906005923 | 12 | 12 | 11.3 | 12.9 | 0.00 | 0.00 | 0.00 | 88 | 1021.8 |
| 20260906005424 | 12 | 10 | 9.7 | 11.3 | 0.00 | 0.00 | 0.00 | 88 | 1021.7 |
| 20260906004923 | 12 | 6 | 9.7 | 11.3 | 0.00 | 0.00 | 0.00 | 88 | 1021.7 |
| 20260906004426 | 12 | 13 | 11.3 | 12.9 | 0.00 | 0.00 | 0.00 | 87 | 1021.7 |
| 20260906004039 | 12 | 17 | 12.9 | 14.5 | 0.00 | 0.00 | 0.00 | 87 | 1022.0 |
| 20260906003539 | 12 | 10 | 11.3 | 12.9 | 0.00 | 0.00 | 0.00 | 87 | 1022.0 |
| 20260906003040 | 12 | 8 | 9.7 | 12.9 | 0.00 | 0.00 | 0.00 | 87 | 1022.0 |
| 20260906002539 | 12 | 14 | 9.7 | 11.3 | 0.00 | 0.00 | 0.00 | 87 | 1022.0 |
| 20260906002423 | 12 | 13 | 9.7 | 11.3 | 0.00 | 0.00 | 0.00 | 87 | 1021.8 |
| 20260906002039 | 12 | 360 | 9.7 | 12.9 | 0.00 | 0.00 | 0.00 | 87 | 1022.0 |
| 20260906001923 | 12 | 8 | 12.9 | 14.5 | 0.00 | 0.00 | 0.00 | 86 | 1021.8 |
| 20260906001539 | 12 | 17 | 12.9 | 14.5 | 0.00 | 0.00 | 0.00 | 86 | 1022.0 |
| 20260906001039 | 12 | 7 | 9.7 | 11.3 | 0.00 | 0.00 | 0.00 | 86 | 1022.0 |
| 20260906000923 | 12 | 2 | 11.3 | 12.9 | 0.00 | 0.00 | 0.00 | 86 | 1021.8 |
| 20260906000539 | 12 | 11 | 12.9 | 14.5 | 0.00 | 0.00 | 0.00 | 86 | 1022.0 |
| 20260906000040 | 12 | 4 | 9.7 | 11.3 | 0.00 | 0.00 | 0.00 | 86 | 1022.0 |
| 20260905235539 | 12 | 353 | 9.7 | 14.5 | 0.00 | 0.00 | 0.00 | 86 | 1022.0 |
| 20260905235423 | 12 | 354 | 9.7 | 11.3 | 0.00 | 0.00 | 0.00 | 86 | 1022.0 |
| 20260905234923 | 12 | 347 | 9.7 | 11.3 | 0.00 | 0.00 | 0.00 | 85 | 1022.0 |
| 20260905234539 | 12 | 346 | 9.7 | 11.3 | 0.00 | 0.00 | 0.00 | 85 | 1022.0 |
| 20260905234425 | 12 | 346 | 8.0 | 9.7 | 0.00 | 0.00 | 0.00 | 85 | 1022.0 |
| 20260905233923 | 12 | 352 | 9.7 | 11.3 | 0.00 | 0.00 | 0.00 | 85 | 1022.0 |
| 20260905233540 | 13 | 351 | 11.3 | 14.5 | 0.00 | 0.00 | 0.00 | 85 | 1022.0 |
| 20260905233423 | 13 | 351 | 11.3 | 17.7 | 0.00 | 0.00 | 0.00 | 84 | 1022.0 |
| 20260905233039 | 13 | 348 | 11.3 | 14.5 | 0.00 | 0.00 | 0.00 | 84 | 1022.0 |
| 20260905232923 | 13 | 332 | 6.4 | 12.9 | 0.00 | 0.00 | 0.00 | 84 | 1021.8 |
| 20260905232424 | 13 | 349 | 9.7 | 12.9 | 0.00 | 0.00 | 0.00 | 84 | 1021.8 |
| 20260905231923 | 13 | 354 | 9.7 | 14.5 | 0.00 | 0.00 | 0.00 | 84 | 1021.8 |
| 20260905231424 | 13 | 345 | 11.3 | 12.9 | 0.00 | 0.00 | 0.00 | 83 | 1021.8 |
| 20260905230923 | 13 | 344 | 8.0 | 11.3 | 0.00 | 0.00 | 0.00 | 84 | 1021.7 |
| 20260905230423 | 13 | 357 | 12.9 | 14.5 | 0.00 | 0.00 | 0.00 | 84 | 1021.7 |